Airfield :
LOGIN :

Register | Disclaimer

   EN    FR    IT 

 










Legend :    VFR   Marginal VFR   IFR   Intensive IFR   Very Intensive IFR
Visi :
Ceiling :
>= 8 km
>= 3000ft
5 to 8 km
1000 to 3000 ft
1500m to 5 km
500 to 1000 ft
800 to 1500m
200 to 500 ft
< 800m
< 200 ft
Symbols :   Thunderstorms  Fog  Heavy snow  Heavy precipitations  Wind > 20 kt
SIGMETs :     Misc.  Thunderstorms  Icing  Turbulence  Mountain Waves  Volcanic Ashes







- Airport Elevation : 364 ft
- IATA code : FRA


EDDF - Frankfurt Int.

CURRENT METAR :
  • 221750Z 12005KT 080V140 9999 FEW023 SCT100 BKN130 22/18 Q1014 NOSIG

EXPIRED METARs :
  • 221720Z 09004KT 9999 FEW023 FEW050CB SCT100 BKN130 22/18 Q1014 NOSIG
  • 221650Z 02005KT 340V060 9999 FEW023 FEW050CB SCT095 BKN120 22/19 Q1014 NOSIG
  • 221620Z 02005KT 350V050 9999 VCSH FEW023 FEW050CB SCT075 BKN110 22/18 Q1014 NOSIG
  • 221550Z 22004KT 180V320 9999 -SHRA FEW023 FEW050CB BKN100 20/18 Q1014 NOSIG
  • 221520Z 25004KT 220V300 9999 -SHRA FEW023 FEW050CB BKN100 20/19 Q1014 NOSIG

TAF TAF EDDF
Valid from the 22 at 18:00 until the 24 at 00:00 UTC


221700Z 2218/2324 03004KT CAVOK
PROB30
TEMPO 2302/2305 4000 BR
BECMG 2308/2311 30007KT
BECMG 2320/2322 02004KT
No reported NOTAMs for that airfield.



MET'MAP, your aeronautical weather chart ! - Copyright ORBIFLY December 2007 - Disclaimer

ORBIFLY MET'MAP TEAM :

Programming & Development : Alexandra Zaïnal
Concept & Development : Baudouin d'Aumeries
Co-Development & Prog : Marc-Olivier Méhu
Technical & hardware support : Manuel Goepfert

Contact : metmap@orbifly.com




SOURCES & CREDITS :

   NOAA